createdAt,value
2018-05-10T00:01:33.990Z,80.50
2018-05-10T00:04:02.074Z,80.30
2018-05-10T00:06:30.124Z,80.60
2018-05-10T00:08:58.218Z,80.60
2018-05-10T00:11:26.297Z,81.00
2018-05-10T00:13:55.186Z,80.90
2018-05-10T00:16:24.385Z,80.50
2018-05-10T00:18:53.220Z,80.40
2018-05-10T00:21:21.291Z,80.40
2018-05-10T00:23:50.533Z,80.40
2018-05-10T00:26:18.614Z,80.60
2018-05-10T00:28:47.453Z,80.70
2018-05-10T00:31:15.569Z,80.70
2018-05-10T00:33:43.609Z,80.70
2018-05-10T00:36:11.681Z,81.10
2018-05-10T00:38:40.299Z,81.40
2018-05-10T00:41:08.349Z,81.40
2018-05-10T00:43:36.408Z,81.50
2018-05-10T00:46:04.789Z,81.40
2018-05-10T00:48:33.861Z,81.40
2018-05-10T00:51:01.965Z,81.10
2018-05-10T00:53:30.540Z,80.80
2018-05-10T00:55:58.637Z,80.60
2018-05-10T00:58:26.673Z,80.80
2018-05-10T01:00:54.975Z,80.80
2018-05-10T01:03:23.046Z,80.70
2018-05-10T01:05:52.053Z,80.70
2018-05-10T01:08:20.889Z,80.50
2018-05-10T01:10:49.017Z,80.40
2018-05-10T01:13:17.381Z,80.40
2018-05-10T01:15:46.230Z,80.00
2018-05-10T01:18:14.304Z,80.10
2018-05-10T01:20:42.368Z,80.00
2018-05-10T01:23:10.474Z,79.80
2018-05-10T01:25:38.568Z,80.00
2018-05-10T01:28:06.969Z,80.00
2018-05-10T01:30:36.032Z,79.70
2018-05-10T01:33:04.086Z,79.60
2018-05-10T01:35:32.483Z,80.00
2018-05-10T01:38:00.566Z,80.20
2018-05-10T01:40:29.416Z,80.60
2018-05-10T01:42:57.481Z,80.60
2018-05-10T01:45:25.540Z,80.40
2018-05-10T01:47:53.637Z,80.70
2018-05-10T01:50:21.938Z,80.60
2018-05-10T01:52:50.006Z,80.40
2018-05-10T01:55:18.261Z,80.30
2018-05-10T01:57:46.365Z,80.10
2018-05-10T02:00:15.225Z,80.60
2018-05-10T02:02:43.280Z,80.50
2018-05-10T02:05:11.404Z,80.80
2018-05-10T02:07:40.418Z,81.60
2018-05-10T02:10:08.517Z,81.50
2018-05-10T02:12:36.842Z,81.70
2018-05-10T02:15:04.881Z,81.90
2018-05-10T02:17:32.940Z,82.00
2018-05-10T02:20:01.261Z,82.10
2018-05-10T02:22:30.096Z,82.00
2018-05-10T02:24:58.193Z,82.00
2018-05-10T02:27:26.542Z,81.90
2018-05-10T02:29:54.625Z,81.70
2018-05-10T02:32:22.690Z,81.80
2018-05-10T02:34:51.021Z,81.90
2018-05-10T02:37:19.096Z,82.20
2018-05-10T02:39:47.923Z,82.20
2018-05-10T02:42:16.354Z,82.00
2018-05-10T02:44:44.605Z,81.90
2018-05-10T02:47:12.706Z,82.30
2018-05-10T02:49:41.080Z,81.70
2018-05-10T02:52:09.173Z,82.10
2018-05-10T02:54:37.990Z,82.70
2018-05-10T02:57:06.077Z,82.60
2018-05-10T02:59:34.141Z,82.90
2018-05-10T03:02:02.216Z,82.90
2018-05-10T03:04:30.327Z,82.50
2018-05-10T03:06:58.377Z,82.50
2018-05-10T03:09:26.865Z,82.30
2018-05-10T03:11:55.266Z,82.40
2018-05-10T03:14:23.337Z,82.60
2018-05-10T03:16:52.202Z,83.60
2018-05-10T03:19:20.567Z,82.90
2018-05-10T03:21:48.653Z,82.90
2018-05-10T03:24:16.704Z,82.80
2018-05-10T03:26:44.780Z,82.60
2018-05-10T03:29:12.836Z,82.20
2018-05-10T03:31:40.904Z,82.20
2018-05-10T03:34:09.325Z,82.50
2018-05-10T03:36:37.400Z,82.40
2018-05-10T03:39:05.461Z,82.30
2018-05-10T03:41:33.745Z,82.20
2018-05-10T03:44:01.833Z,82.40
2018-05-10T03:46:29.934Z,82.60
2018-05-10T03:48:57.958Z,82.50
2018-05-10T03:51:26.017Z,82.10
2018-05-10T03:53:54.112Z,82.60
2018-05-10T03:56:22.498Z,83.20
2018-05-10T03:58:51.545Z,83.40
2018-05-10T04:01:19.664Z,83.40
2018-05-10T04:03:48.120Z,83.40
2018-05-10T04:06:16.223Z,82.60
2018-05-10T04:08:45.065Z,83.10
2018-05-10T04:11:14.196Z,83.10
2018-05-10T04:13:42.240Z,83.10
2018-05-10T04:16:10.355Z,82.80
2018-05-10T04:18:39.504Z,82.30
2018-05-10T04:21:07.572Z,82.30
2018-05-10T04:23:35.648Z,82.10
2018-05-10T04:26:03.951Z,81.90
2018-05-10T04:28:32.037Z,81.80
2018-05-10T04:31:00.890Z,81.70
2018-05-10T04:33:29.276Z,81.70
2018-05-10T04:35:57.386Z,81.80
2018-05-10T04:38:26.233Z,81.80
2018-05-10T04:40:54.341Z,81.80
2018-05-10T04:43:23.209Z,81.50
2018-05-10T04:45:51.287Z,81.40
2018-05-10T04:48:19.429Z,81.50
2018-05-10T04:50:47.541Z,81.30
2018-05-10T04:53:15.581Z,81.30
2018-05-10T04:55:43.957Z,81.20
2018-05-10T04:58:12.027Z,81.30
2018-05-10T05:00:40.139Z,81.40
2018-05-10T05:03:08.196Z,81.70
2018-05-10T05:05:37.045Z,81.90
2018-05-10T05:08:05.110Z,81.80
2018-05-10T05:10:33.241Z,81.70
2018-05-10T05:13:01.589Z,81.70
2018-05-10T05:15:29.677Z,81.80
2018-05-10T05:17:58.025Z,81.80
2018-05-10T05:20:26.109Z,81.70
2018-05-10T05:22:54.255Z,81.70
2018-05-10T05:25:22.604Z,81.70
2018-05-10T05:27:51.477Z,81.70
2018-05-10T05:30:19.559Z,81.70
2018-05-10T05:32:48.022Z,81.10
2018-05-10T05:35:16.800Z,81.30
2018-05-10T05:37:45.038Z,81.30
2018-05-10T05:40:13.759Z,81.30
2018-05-10T05:42:41.841Z,81.30
2018-05-10T05:45:10.704Z,81.30
2018-05-10T05:47:38.802Z,81.30
2018-05-10T05:50:06.901Z,81.30
2018-05-10T05:52:35.252Z,81.30
2018-05-10T05:55:03.407Z,81.40
2018-05-10T05:57:31.377Z,81.70
2018-05-10T05:59:59.491Z,81.70
2018-05-10T06:02:28.345Z,81.30
2018-05-10T06:04:56.412Z,81.30
2018-05-10T06:07:24.881Z,81.50
2018-05-10T06:09:53.172Z,81.40
2018-05-10T06:12:21.229Z,81.20
2018-05-10T06:14:49.317Z,81.10
2018-05-10T06:17:17.382Z,80.90
2018-05-10T06:19:45.494Z,81.00
2018-05-10T06:22:14.681Z,81.10
2018-05-10T06:24:42.791Z,81.10
2018-05-10T06:27:10.879Z,82.00
2018-05-10T06:29:39.405Z,81.60
2018-05-10T06:32:07.458Z,81.40
2018-05-10T06:34:35.729Z,80.90
2018-05-10T06:37:04.816Z,81.00
2018-05-10T06:39:32.968Z,80.60
2018-05-10T06:42:01.045Z,80.70
2018-05-10T06:44:29.128Z,80.90
2018-05-10T06:46:57.231Z,80.90
2018-05-10T06:49:25.329Z,80.40
2018-05-10T06:51:53.433Z,80.80
2018-05-10T06:54:21.532Z,80.60
2018-05-10T06:56:49.589Z,80.20
2018-05-10T06:59:17.717Z,80.20
2018-05-10T07:01:46.665Z,80.00
2018-05-10T07:04:14.748Z,79.90
2018-05-10T07:06:43.102Z,79.90
2018-05-10T07:09:11.213Z,80.40
2018-05-10T07:11:39.437Z,80.20
2018-05-10T07:14:07.871Z,79.30
2018-05-10T07:16:35.958Z,79.40
2018-05-10T07:19:04.777Z,79.70
2018-05-10T07:21:33.096Z,79.70
2018-05-10T07:24:01.149Z,79.80
2018-05-10T07:26:29.325Z,78.40
2018-05-10T07:28:57.729Z,77.60
2018-05-10T07:31:25.773Z,77.50
2018-05-10T07:33:53.844Z,78.30
2018-05-10T07:36:21.945Z,78.00
2018-05-10T07:38:51.429Z,77.00
2018-05-10T07:41:19.485Z,76.90
2018-05-10T07:43:47.761Z,75.90
2018-05-10T07:46:15.885Z,75.70
2018-05-10T07:48:44.729Z,74.70
2018-05-10T07:51:13.037Z,74.60
2018-05-10T07:53:41.893Z,73.70
2018-05-10T07:56:09.985Z,73.70
2018-05-10T07:58:38.061Z,73.20
2018-05-10T08:01:06.116Z,72.10
2018-05-10T08:03:34.185Z,71.70
2018-05-10T08:06:02.765Z,71.00
2018-05-10T08:08:30.868Z,70.70
2018-05-10T08:10:59.760Z,69.90
2018-05-10T08:13:28.655Z,70.30
2018-05-10T08:15:57.539Z,70.70
2018-05-10T08:18:25.612Z,70.60
2018-05-10T08:20:53.747Z,71.50
2018-05-10T08:23:21.804Z,70.80
2018-05-10T08:25:49.901Z,70.00
2018-05-10T08:28:18.369Z,70.40
2018-05-10T08:30:46.481Z,69.50
2018-05-10T08:33:14.553Z,70.00
2018-05-10T08:35:42.643Z,69.40
2018-05-10T08:38:11.329Z,69.90
2018-05-10T08:40:40.205Z,70.00
2018-05-10T08:43:09.917Z,68.60
2018-05-10T08:45:38.744Z,69.40
2018-05-10T08:48:06.837Z,69.40
2018-05-10T08:50:34.916Z,69.50
2018-05-10T08:53:03.019Z,68.90
2018-05-10T08:55:31.890Z,69.80
2018-05-10T08:57:59.968Z,69.00
2018-05-10T09:00:28.821Z,69.30
2018-05-10T09:02:56.912Z,69.30
2018-05-10T09:05:25.505Z,69.80
2018-05-10T09:07:54.063Z,70.70
2018-05-10T09:10:22.135Z,70.60
2018-05-10T09:12:50.267Z,70.60
2018-05-10T09:15:19.079Z,70.20
2018-05-10T09:17:47.184Z,70.30
2018-05-10T09:20:15.265Z,70.40
2018-05-10T09:22:43.321Z,70.60
2018-05-10T09:25:11.392Z,71.00
2018-05-10T09:27:39.768Z,71.50
2018-05-10T09:30:08.765Z,71.90
2018-05-10T09:32:36.834Z,73.20
2018-05-10T09:35:04.906Z,76.60
2018-05-10T09:37:33.340Z,80.20
2018-05-10T09:40:02.205Z,81.10
2018-05-10T09:42:30.257Z,81.10
2018-05-10T09:44:58.457Z,83.70
2018-05-10T09:47:26.525Z,85.60
2018-05-10T09:49:55.372Z,86.20
2018-05-10T09:52:23.872Z,86.20
2018-05-10T09:54:51.962Z,86.20
2018-05-10T09:57:20.016Z,86.30
2018-05-10T09:59:48.365Z,87.80
2018-05-10T10:02:16.467Z,86.90
2018-05-10T10:04:44.549Z,87.70
2018-05-10T10:07:12.633Z,88.70
2018-05-10T10:09:40.689Z,88.70
2018-05-10T10:12:08.765Z,90.00
2018-05-10T10:14:36.844Z,90.30
2018-05-10T10:17:05.713Z,89.70
2018-05-10T10:19:33.778Z,89.50
2018-05-10T10:22:01.869Z,90.30
2018-05-10T10:24:29.956Z,90.80
2018-05-10T10:26:58.788Z,90.40
2018-05-10T10:29:27.205Z,90.40
2018-05-10T10:31:55.361Z,91.00
2018-05-10T10:34:23.533Z,90.00
2018-05-10T10:36:51.936Z,89.40
2018-05-10T10:39:19.985Z,89.50
2018-05-10T10:41:48.073Z,88.20
2018-05-10T10:44:16.324Z,89.20
2018-05-10T10:46:44.421Z,90.40
2018-05-10T10:49:12.482Z,90.80
2018-05-10T10:51:40.897Z,90.10
2018-05-10T10:54:09.752Z,90.70
2018-05-10T10:56:37.804Z,90.70
2018-05-10T10:59:06.109Z,90.90
2018-05-10T11:01:34.209Z,91.00
2018-05-10T11:04:03.057Z,90.90
2018-05-10T11:06:31.183Z,90.90
2018-05-10T11:08:59.302Z,90.70
2018-05-10T11:11:27.389Z,91.10
2018-05-10T11:13:55.765Z,91.30
2018-05-10T11:16:23.856Z,90.20
2018-05-10T11:18:52.717Z,91.00
2018-05-10T11:21:20.832Z,91.00
2018-05-10T11:23:49.689Z,91.40
2018-05-10T11:26:17.777Z,91.40
2018-05-10T11:28:46.628Z,91.70
2018-05-10T11:31:14.697Z,91.50
2018-05-10T11:33:42.863Z,91.50
2018-05-10T11:36:11.280Z,91.60
2018-05-10T11:38:39.335Z,91.60
2018-05-10T11:41:07.433Z,91.50
2018-05-10T11:43:35.978Z,91.10
2018-05-10T11:46:04.072Z,90.40
2018-05-10T11:48:32.153Z,90.80
2018-05-10T11:51:00.204Z,91.30
2018-05-10T11:53:28.301Z,91.30
2018-05-10T11:55:56.341Z,91.40
2018-05-10T11:58:24.961Z,91.50
2018-05-10T12:00:53.038Z,91.50
2018-05-10T12:03:21.918Z,92.20
2018-05-10T12:05:50.285Z,92.20
2018-05-10T12:08:19.877Z,92.50
2018-05-10T12:10:47.977Z,92.50
2018-05-10T12:13:17.161Z,92.80
2018-05-10T12:15:45.220Z,92.40
2018-05-10T12:18:13.304Z,91.70
2018-05-10T12:20:41.401Z,92.00
2018-05-10T12:23:10.328Z,92.80
2018-05-10T12:25:38.491Z,92.80
2018-05-10T12:28:07.037Z,92.60
2018-05-10T12:30:35.113Z,92.30
2018-05-10T12:33:03.945Z,92.60
2018-05-10T12:35:32.480Z,92.50
2018-05-10T12:38:01.320Z,92.50
2018-05-10T12:40:29.413Z,92.60
2018-05-10T12:42:57.809Z,92.40
2018-05-10T12:45:25.865Z,92.60
2018-05-10T12:47:54.165Z,92.30
2018-05-10T12:50:22.721Z,92.00
2018-05-10T12:52:50.822Z,92.20
2018-05-10T12:55:18.921Z,91.80
2018-05-10T12:57:46.989Z,90.10
2018-05-10T13:00:15.041Z,87.70
2018-05-10T13:02:43.986Z,84.40
2018-05-10T13:05:13.509Z,87.80
2018-05-10T13:07:41.573Z,87.80
2018-05-10T13:10:09.645Z,85.50
2018-05-10T13:12:38.353Z,87.30
2018-05-10T13:15:06.439Z,88.10
2018-05-10T13:17:35.281Z,88.60
2018-05-10T13:20:03.381Z,88.60
2018-05-10T13:22:31.469Z,89.90
2018-05-10T13:25:00.370Z,90.20
2018-05-10T13:27:29.225Z,90.80
2018-05-10T13:29:57.325Z,90.80
2018-05-10T13:32:26.168Z,91.30
2018-05-10T13:34:54.572Z,91.30
2018-05-10T13:37:22.765Z,91.30
2018-05-10T13:39:50.835Z,91.50
2018-05-10T13:42:19.218Z,91.20
2018-05-10T13:44:48.813Z,91.60
2018-05-10T13:47:16.976Z,91.60
2018-05-10T13:49:44.981Z,91.30
2018-05-10T13:52:13.853Z,90.50
2018-05-10T13:54:41.902Z,90.40
2018-05-10T13:57:10.181Z,90.40
2018-05-10T13:59:38.284Z,90.10
2018-05-10T14:02:07.137Z,87.30
2018-05-10T14:04:35.287Z,87.30
2018-05-10T14:07:04.075Z,86.20
2018-05-10T14:09:32.174Z,86.20
2018-05-10T14:12:00.626Z,88.00
2018-05-10T14:14:28.661Z,85.50
2018-05-10T14:16:58.109Z,80.70
2018-05-10T14:19:26.227Z,80.70
2018-05-10T14:21:54.303Z,82.20
2018-05-10T14:24:23.485Z,78.30
2018-05-10T14:26:51.548Z,78.40
2018-05-10T14:29:19.601Z,77.00
2018-05-10T14:31:47.709Z,73.80
2018-05-10T14:34:16.539Z,76.10
2018-05-10T14:36:44.642Z,75.40
2018-05-10T14:39:13.097Z,73.10
2018-05-10T14:41:41.297Z,73.20
2018-05-10T14:44:10.133Z,70.70
2018-05-10T14:46:38.609Z,71.00
2018-05-10T14:49:06.629Z,66.20
2018-05-10T14:51:34.680Z,69.40
2018-05-10T14:54:03.167Z,71.70
2018-05-10T14:56:31.142Z,65.60
2018-05-10T14:58:59.199Z,69.90
2018-05-10T15:01:27.648Z,72.10
2018-05-10T15:03:57.504Z,73.90
2018-05-10T15:06:25.593Z,73.80
2018-05-10T15:08:53.679Z,70.90
2018-05-10T15:11:22.282Z,71.50
2018-05-10T15:13:51.174Z,73.70
2018-05-10T15:16:20.010Z,69.30
2018-05-10T15:18:48.114Z,69.60
2018-05-10T15:21:16.185Z,71.90
2018-05-10T15:23:44.320Z,72.80
2018-05-10T15:26:12.350Z,77.70
2018-05-10T15:28:41.963Z,77.60
2018-05-10T15:31:11.566Z,76.80
2018-05-10T15:33:40.423Z,76.30
2018-05-10T15:36:08.521Z,76.20
2018-05-10T15:38:36.568Z,77.00
2018-05-10T15:41:04.650Z,73.30
2018-05-10T15:43:32.714Z,75.30
2018-05-10T15:46:01.030Z,74.40
2018-05-10T15:48:29.849Z,77.80
2018-05-10T15:50:57.944Z,77.80
2018-05-10T15:53:26.340Z,77.10
2018-05-10T15:55:54.480Z,77.00
2018-05-10T15:58:22.569Z,80.90
2018-05-10T16:00:50.673Z,79.10
2018-05-10T16:03:18.712Z,81.00
2018-05-10T16:05:46.798Z,77.60
2018-05-10T16:08:14.890Z,79.40
2018-05-10T16:10:43.720Z,77.40
2018-05-10T16:13:11.801Z,77.30
2018-05-10T16:15:40.401Z,80.70
2018-05-10T16:18:08.456Z,80.40
2018-05-10T16:20:36.525Z,81.10
2018-05-10T16:23:04.616Z,81.40
2018-05-10T16:25:32.672Z,78.60
2018-05-10T16:28:00.788Z,79.90
2018-05-10T16:30:29.681Z,77.40
2018-05-10T16:32:58.622Z,76.80
2018-05-10T16:35:26.721Z,76.70
2018-05-10T16:37:55.022Z,78.90
2018-05-10T16:40:23.888Z,78.90
2018-05-10T16:42:51.949Z,78.80
2018-05-10T16:45:20.473Z,76.40
2018-05-10T16:47:49.465Z,74.10
2018-05-10T16:50:17.502Z,74.10
2018-05-10T16:52:45.573Z,75.90
2018-05-10T16:55:13.645Z,76.20
2018-05-10T16:57:41.999Z,76.90
2018-05-10T17:00:10.421Z,77.60
2018-05-10T17:02:38.496Z,78.10
2018-05-10T17:05:06.577Z,78.80
2018-05-10T17:07:35.718Z,78.00
2018-05-10T17:10:03.935Z,77.20
2018-05-10T17:12:32.017Z,75.10
2018-05-10T17:15:01.217Z,78.30
2018-05-10T17:17:30.060Z,76.90
2018-05-10T17:19:58.133Z,76.90
2018-05-10T17:22:26.536Z,74.90
2018-05-10T17:24:54.618Z,75.20
2018-05-10T17:27:23.510Z,79.50
2018-05-10T17:29:51.550Z,79.10
2018-05-10T17:32:19.649Z,79.80
2018-05-10T17:34:48.029Z,76.50
2018-05-10T17:37:17.116Z,76.90
2018-05-10T17:39:45.193Z,75.40
2018-05-10T17:42:14.050Z,75.90
2018-05-10T17:44:42.377Z,75.80
2018-05-10T17:47:11.221Z,75.90
2018-05-10T17:49:39.345Z,75.90
2018-05-10T17:52:08.221Z,75.20
2018-05-10T17:54:36.298Z,75.20
2018-05-10T17:57:05.131Z,79.90
2018-05-10T17:59:33.456Z,79.70
2018-05-10T18:02:01.697Z,78.90
2018-05-10T18:04:29.777Z,81.00
2018-05-10T18:06:57.901Z,79.70
2018-05-10T18:09:26.714Z,78.40
2018-05-10T18:11:54.778Z,78.30
2018-05-10T18:14:23.595Z,78.40
2018-05-10T18:16:51.682Z,82.10
2018-05-10T18:19:19.744Z,82.40
2018-05-10T18:21:48.146Z,81.40
2018-05-10T18:24:16.217Z,83.30
2018-05-10T18:26:45.109Z,83.80
2018-05-10T18:29:14.737Z,84.00
2018-05-10T18:31:44.385Z,84.10
2018-05-10T18:34:12.454Z,84.10
2018-05-10T18:36:40.537Z,84.30
2018-05-10T18:39:09.546Z,84.70
2018-05-10T18:41:37.925Z,85.20
2018-05-10T18:44:07.523Z,85.20
2018-05-10T18:46:35.602Z,83.20
2018-05-10T18:49:03.674Z,84.60
2018-05-10T18:51:31.783Z,83.30
2018-05-10T18:54:00.605Z,85.00
2018-05-10T18:56:28.753Z,84.90
2018-05-10T18:58:57.613Z,86.00
2018-05-10T19:01:25.691Z,86.00
2018-05-10T19:03:55.253Z,87.50
2018-05-10T19:06:23.350Z,86.70
2018-05-10T19:08:51.417Z,88.00
2018-05-10T19:11:19.809Z,87.60
2018-05-10T19:13:48.647Z,89.40
2018-05-10T19:16:16.722Z,88.80
2018-05-10T19:18:44.843Z,89.20
2018-05-10T19:21:14.429Z,89.50
2018-05-10T19:23:42.511Z,89.50
2018-05-10T19:26:11.073Z,89.30
2018-05-10T19:28:39.165Z,89.60
2018-05-10T19:31:07.217Z,89.80
2018-05-10T19:33:35.309Z,89.40
2018-05-10T19:36:03.361Z,89.70
2018-05-10T19:38:31.429Z,90.00
2018-05-10T19:40:59.532Z,89.90
2018-05-10T19:43:27.635Z,90.10
2018-05-10T19:45:55.730Z,90.50
2018-05-10T19:48:24.033Z,90.30
2018-05-10T19:50:52.117Z,90.50
2018-05-10T19:53:20.365Z,90.40
2018-05-10T19:55:48.437Z,90.70
2018-05-10T19:58:16.521Z,90.70
2018-05-10T20:00:44.605Z,90.70
2018-05-10T20:03:12.714Z,90.80
2018-05-10T20:05:41.739Z,90.80
2018-05-10T20:08:09.833Z,90.80
2018-05-10T20:10:38.125Z,90.70
2018-05-10T20:13:06.172Z,90.70
2018-05-10T20:15:34.250Z,90.90
2018-05-10T20:18:02.411Z,90.90
2018-05-10T20:20:30.505Z,91.10
2018-05-10T20:22:58.565Z,90.70
2018-05-10T20:25:26.645Z,90.30
2018-05-10T20:27:54.698Z,90.50
2018-05-10T20:30:22.769Z,90.40
2018-05-10T20:32:50.885Z,90.40
2018-05-10T20:35:19.734Z,90.40
2018-05-10T20:37:47.802Z,90.40
2018-05-10T20:40:16.186Z,90.30
2018-05-10T20:42:44.261Z,90.50
2018-05-10T20:45:12.349Z,90.50
2018-05-10T20:47:40.925Z,90.60
2018-05-10T20:50:09.005Z,90.40
2018-05-10T20:52:37.089Z,90.40
2018-05-10T20:55:05.305Z,90.20
2018-05-10T20:57:33.337Z,90.20
2018-05-10T21:00:02.193Z,90.20
2018-05-10T21:02:30.903Z,90.20
2018-05-10T21:04:58.973Z,90.10
2018-05-10T21:07:27.029Z,90.10
2018-05-10T21:09:55.190Z,90.00
2018-05-10T21:12:23.197Z,90.10
2018-05-10T21:14:51.277Z,90.00
2018-05-10T21:17:20.362Z,90.00
2018-05-10T21:19:48.412Z,90.00
2018-05-10T21:22:16.493Z,90.10
2018-05-10T21:24:44.589Z,90.10
2018-05-10T21:27:13.418Z,90.30
2018-05-10T21:29:41.487Z,90.30
2018-05-10T21:32:09.611Z,90.20
2018-05-10T21:34:37.656Z,90.00
2018-05-10T21:37:05.753Z,90.00
2018-05-10T21:39:33.800Z,90.00
2018-05-10T21:42:01.878Z,90.30
2018-05-10T21:44:29.945Z,90.10
2018-05-10T21:46:58.304Z,90.10
2018-05-10T21:49:26.406Z,90.20
2018-05-10T21:51:54.665Z,90.00
2018-05-10T21:54:23.029Z,89.70
2018-05-10T21:56:51.105Z,90.00
2018-05-10T21:59:19.217Z,90.00
2018-05-10T22:01:47.296Z,89.60
2018-05-10T22:04:16.251Z,90.20
2018-05-10T22:06:44.366Z,90.20
2018-05-10T22:09:12.912Z,90.10
2018-05-10T22:11:41.773Z,90.20
2018-05-10T22:14:09.817Z,90.30
2018-05-10T22:16:38.368Z,90.30
2018-05-10T22:19:06.421Z,90.20
2018-05-10T22:21:34.505Z,90.30
2018-05-10T22:24:02.889Z,90.20
2018-05-10T22:26:31.712Z,90.30
2018-05-10T22:29:00.580Z,90.20
2018-05-10T22:31:29.981Z,89.90
2018-05-10T22:33:58.053Z,89.90
2018-05-10T22:36:26.113Z,90.00
2018-05-10T22:38:54.213Z,90.10
2018-05-10T22:41:23.208Z,90.10
2018-05-10T22:43:51.260Z,90.10
2018-05-10T22:46:20.449Z,90.10
2018-05-10T22:48:48.503Z,90.10
2018-05-10T22:51:16.561Z,90.10
2018-05-10T22:53:44.720Z,90.00
2018-05-10T22:56:12.791Z,90.00
2018-05-10T22:58:40.837Z,90.00
2018-05-10T23:01:09.194Z,90.10
2018-05-10T23:03:37.269Z,90.30
2018-05-10T23:06:06.388Z,90.00
2018-05-10T23:08:34.737Z,90.00
2018-05-10T23:11:02.800Z,90.20
2018-05-10T23:13:30.884Z,89.90
2018-05-10T23:15:59.334Z,90.10
2018-05-10T23:18:27.421Z,90.20
2018-05-10T23:20:55.460Z,90.20
2018-05-10T23:23:23.829Z,90.20
2018-05-10T23:25:51.913Z,90.20
2018-05-10T23:28:20.002Z,90.30
2018-05-10T23:30:48.397Z,90.30
2018-05-10T23:33:16.443Z,90.40
2018-05-10T23:35:44.542Z,90.50
2018-05-10T23:38:12.597Z,90.60
2018-05-10T23:40:40.674Z,90.60
2018-05-10T23:43:08.717Z,90.70
2018-05-10T23:45:37.097Z,90.60
2018-05-10T23:48:05.157Z,90.60
2018-05-10T23:50:33.225Z,90.60
2018-05-10T23:53:01.617Z,90.50
2018-05-10T23:55:29.905Z,90.60
2018-05-10T23:57:57.965Z,90.50
